Time;durP1;ratioP1;P1;durP2;ratioP2;P2;SDS_P1;SDS_P2;PMS_P1;PMS_P2;Temp;Humidity;BMP_temperature;BMP_pressure;BME280_temperature;BME280_humidity;BME280_pressure;Samples;Min_cycle;Max_cycle;Signal;HPM_P1;HPM_P2
2023/01/01 00:01:42;;;;;;;;;;;9.40;92.80;;;;;;5013485;28;19946;-88
2023/01/01 00:04:12;;;;;;;;;;;9.40;92.80;;;;;;5013231;28;19970;-88
2023/01/01 00:06:37;;;;;;;;;;;9.40;92.70;;;;;;5013163;28;19952;-87
2023/01/01 00:11:47;;;;;;;;;;;9.30;92.40;;;;;;4994146;28;20016;-87
2023/01/01 00:14:13;;;;;;;;;;;9.30;92.40;;;;;;4999153;28;19940;-88
2023/01/01 00:16:38;;;;;;;;;;;9.40;92.40;;;;;;5013250;28;20458;-87
2023/01/01 00:19:04;;;;;;;;;;;9.30;92.50;;;;;;5020467;28;19998;-87
2023/01/01 00:21:29;;;;;;;;;;;9.30;92.60;;;;;;5013078;28;20346;-87
2023/01/01 00:23:55;;;;;;;;;;;9.20;92.60;;;;;;5013290;28;20118;-87
2023/01/01 00:26:20;;;;;;;;;;;9.20;92.70;;;;;;5013430;28;19966;-87
2023/01/01 00:28:46;;;;;;;;;;;9.20;92.80;;;;;;5013537;28;20327;-87
2023/01/01 00:31:13;;;;;;;;;;;9.20;93.00;;;;;;5013200;28;19952;-87
2023/01/01 00:33:39;;;;;;;;;;;9.20;93.10;;;;;;5013211;28;19949;-87
2023/01/01 00:36:08;;;;;;;;;;;9.10;93.30;;;;;;5012676;28;19939;-88
2023/01/01 00:38:33;;;;;;;;;;;9.10;93.30;;;;;;5013211;28;20295;-88
2023/01/01 00:40:59;;;;;;;;;;;9.10;93.50;;;;;;5008987;28;20030;-87
2023/01/01 00:43:24;;;;;;;;;;;9.20;93.50;;;;;;5012756;28;19957;-87
2023/01/01 00:45:53;;;;;;;;;;;9.20;93.40;;;;;;5013003;28;20412;-87
2023/01/01 00:48:19;;;;;;;;;;;9.20;93.40;;;;;;5013086;28;19952;-87
2023/01/01 00:50:49;;;;;;;;;;;9.30;93.50;;;;;;5012840;28;20426;-88
2023/01/01 00:53:14;;;;;;;;;;;9.30;93.50;;;;;;5012798;28;19968;-87
2023/01/01 00:55:41;;;;;;;;;;;9.30;93.40;;;;;;5012875;28;19944;-87
2023/01/01 00:58:06;;;;;;;;;;;9.30;93.40;;;;;;5011868;28;20001;-87
2023/01/01 01:00:32;;;;;;;;;;;9.30;93.20;;;;;;5012909;28;20466;-87
2023/01/01 01:02:58;;;;;;;;;;;9.30;93.20;;;;;;5013050;28;19939;-88
2023/01/01 01:05:23;;;;;;;;;;;9.30;93.20;;;;;;5012488;28;19949;-87
2023/01/01 01:07:49;;;;;;;;;;;9.40;93.20;;;;;;5012861;28;19945;-87
2023/01/01 01:10:14;;;;;;;;;;;9.40;93.10;;;;;;5012756;28;19943;-87
2023/01/01 01:12:40;;;;;;;;;;;9.40;93.00;;;;;;5012943;28;20315;-87
2023/01/01 01:15:06;;;;;;;;;;;9.50;92.90;;;;;;5012628;28;20406;-87
2023/01/01 01:17:31;;;;;;;;;;;9.50;92.70;;;;;;5012658;28;19945;-87
2023/01/01 01:19:57;;;;;;;;;;;9.40;92.60;;;;;;5012659;28;19959;-88
2023/01/01 01:22:22;;;;;;;;;;;9.50;92.50;;;;;;5012798;28;19945;-87
2023/01/01 01:24:48;;;;;;;;;;;9.50;92.40;;;;;;5012667;28;19956;-87
2023/01/01 01:27:13;;;;;;;;;;;9.50;92.50;;;;;;5012726;28;19984;-87
2023/01/01 01:29:39;;;;;;;;;;;9.40;92.50;;;;;;5012647;28;20031;-87
2023/01/01 01:32:04;;;;;;;;;;;9.40;92.60;;;;;;5012594;28;19998;-87
2023/01/01 01:34:30;;;;;;;;;;;9.30;92.80;;;;;;5012586;28;19952;-87
2023/01/01 01:36:56;;;;;;;;;;;9.30;93.00;;;;;;5012624;28;19947;-87
2023/01/01 01:39:21;;;;;;;;;;;9.20;93.20;;;;;;5012432;28;19948;-87
2023/01/01 01:41:47;;;;;;;;;;;9.20;93.40;;;;;;5012570;28;20317;-87
2023/01/01 01:44:31;;;;;;;;;;;9.20;93.40;;;;;;5012553;28;20309;-88
2023/01/01 01:46:58;;;;;;;;;;;9.20;93.20;;;;;;5012356;28;19956;-87
2023/01/01 01:49:29;;;;;;;;;;;9.20;93.30;;;;;;5015665;28;20399;-87
2023/01/01 01:51:55;;;;;;;;;;;9.30;93.30;;;;;;5015850;28;19970;-87
2023/01/01 01:54:22;;;;;;;;;;;9.20;93.10;;;;;;5015610;28;19949;-88
2023/01/01 01:56:48;;;;;;;;;;;9.20;93.10;;;;;;5014629;28;19956;-87
2023/01/01 01:59:14;;;;;;;;;;;9.20;93.30;;;;;;5015860;28;19942;-87
2023/01/01 02:01:40;;;;;;;;;;;9.20;93.40;;;;;;5016009;28;19946;-87
2023/01/01 02:04:06;;;;;;;;;;;9.20;93.50;;;;;;5015628;28;19950;-87
2023/01/01 02:06:32;;;;;;;;;;;9.30;93.50;;;;;;5015759;28;20431;-87
2023/01/01 02:08:59;;;;;;;;;;;9.30;93.60;;;;;;5015583;28;19950;-87
2023/01/01 02:11:25;;;;;;;;;;;9.30;93.60;;;;;;5015378;28;19951;-87
2023/01/01 02:13:51;;;;;;;;;;;9.30;93.70;;;;;;5015729;28;19951;-87
2023/01/01 02:16:16;;;;;;;;;;;9.30;93.70;;;;;;5015095;28;19980;-87
2023/01/01 02:18:55;;;;;;;;;;;9.20;93.70;;;;;;5015232;28;19951;-87
2023/01/01 02:21:26;;;;;;;;;;;9.20;93.80;;;;;;5015222;28;19951;-87
2023/01/01 02:24:15;;;;;;;;;;;9.30;93.80;;;;;;5015552;28;19949;-87
2023/01/01 02:26:50;;;;;;;;;;;9.20;93.90;;;;;;5001532;28;20399;-87
2023/01/01 02:29:27;;;;;;;;;;;9.20;94.00;;;;;;5013777;28;20772;-87
2023/01/01 02:31:58;;;;;;;;;;;9.20;94.20;;;;;;5015341;28;19959;-88
2023/01/01 02:34:25;;;;;;;;;;;9.20;94.40;;;;;;5015165;28;20002;-88
2023/01/01 02:36:53;;;;;;;;;;;9.30;94.40;;;;;;5015143;28;19945;-87
2023/01/01 02:39:21;;;;;;;;;;;9.30;94.40;;;;;;5015123;28;19954;-87
2023/01/01 02:41:48;;;;;;;;;;;9.30;94.30;;;;;;5015082;28;19947;-87
2023/01/01 02:44:14;;;;;;;;;;;9.40;94.30;;;;;;5014966;28;19967;-88
2023/01/01 02:46:39;;;;;;;;;;;9.40;94.30;;;;;;5014648;28;20522;-87
2023/01/01 02:49:05;;;;;;;;;;;9.40;94.30;;;;;;5014915;28;20418;-87
2023/01/01 02:51:45;;;;;;;;;;;9.50;94.20;;;;;;5014756;28;19953;-87
2023/01/01 02:54:13;;;;;;;;;;;9.50;94.10;;;;;;5014644;28;19983;-87
2023/01/01 02:57:02;;;;;;;;;;;9.40;94.00;;;;;;5014505;28;20464;-87
2023/01/01 03:02:24;;;;;;;;;;;9.50;94.10;;;;;;5014942;28;19949;-88
2023/01/01 03:04:56;;;;;;;;;;;9.50;94.00;;;;;;5014525;28;20463;-87
2023/01/01 03:07:32;;;;;;;;;;;9.50;93.90;;;;;;5014600;28;20084;-87
2023/01/01 03:09:58;;;;;;;;;;;9.60;93.90;;;;;;4999152;28;19945;-87
2023/01/01 03:12:38;;;;;;;;;;;9.70;93.80;;;;;;5014455;28;19971;-87
2023/01/01 03:15:13;;;;;;;;;;;9.70;93.60;;;;;;5033984;23;19973;-87
2023/01/01 03:17:43;;;;;;;;;;;9.70;93.50;;;;;;5053992;28;19945;-87
2023/01/01 03:20:15;;;;;;;;;;;9.80;93.30;;;;;;5053801;28;20411;-87
2023/01/01 03:22:42;;;;;;;;;;;9.80;93.10;;;;;;5053852;28;20040;-87
2023/01/01 03:25:08;;;;;;;;;;;9.60;92.80;;;;;;5053583;28;19947;-87
2023/01/01 03:27:39;;;;;;;;;;;9.60;93.00;;;;;;5053450;28;19945;-88
2023/01/01 03:30:09;;;;;;;;;;;9.60;92.80;;;;;;5035876;28;20017;-87
2023/01/01 03:33:02;;;;;;;;;;;9.60;92.70;;;;;;5053726;28;19970;-87
2023/01/01 03:35:32;;;;;;;;;;;9.60;92.90;;;;;;5070785;28;20319;-87
2023/01/01 03:37:59;;;;;;;;;;;9.50;92.90;;;;;;5069423;28;20034;-88
2023/01/01 03:40:26;;;;;;;;;;;9.50;93.00;;;;;;5053624;28;19940;-87
2023/01/01 03:42:54;;;;;;;;;;;9.40;93.30;;;;;;5053747;28;19951;-87
2023/01/01 03:45:25;;;;;;;;;;;9.30;93.60;;;;;;5053415;28;19943;-88
2023/01/01 03:47:51;;;;;;;;;;;9.30;93.80;;;;;;5053137;28;19950;-88
2023/01/01 03:50:16;;;;;;;;;;;9.40;93.80;;;;;;5053402;28;20031;-87
2023/01/01 03:52:47;;;;;;;;;;;9.50;93.80;;;;;;5061341;28;20008;-87
2023/01/01 03:55:22;;;;;;;;;;;9.50;93.80;;;;;;5073202;28;19936;-87
2023/01/01 03:58:06;;;;;;;;;;;9.50;93.70;;;;;;5073240;28;19948;-87
2023/01/01 04:00:36;;;;;;;;;;;9.50;93.60;;;;;;5073278;28;19949;-87
2023/01/01 04:03:15;;;;;;;;;;;9.50;93.70;;;;;;5051886;28;19948;-87
2023/01/01 04:05:42;;;;;;;;;;;9.60;93.60;;;;;;5057651;28;20444;-87
2023/01/01 04:08:08;;;;;;;;;;;9.70;93.30;;;;;;5072918;28;19949;-87
2023/01/01 04:10:35;;;;;;;;;;;9.70;93.10;;;;;;5051337;28;19979;-88
2023/01/01 04:13:01;;;;;;;;;;;9.70;93.00;;;;;;5053162;28;19964;-87
2023/01/01 04:15:27;;;;;;;;;;;9.60;92.90;;;;;;5055911;28;19970;-87
2023/01/01 04:17:53;;;;;;;;;;;9.50;93.10;;;;;;5072951;28;20319;-87
2023/01/01 04:20:19;;;;;;;;;;;9.50;93.20;;;;;;5072832;28;20334;-88
2023/01/01 04:22:44;;;;;;;;;;;9.40;93.40;;;;;;5072877;28;19956;-88
2023/01/01 04:25:10;;;;;;;;;;;9.50;93.40;;;;;;5072884;28;20029;-88
2023/01/01 04:27:37;;;;;;;;;;;9.40;93.60;;;;;;5072943;28;19952;-88
2023/01/01 04:30:07;;;;;;;;;;;9.50;93.70;;;;;;5072592;28;19945;-87
2023/01/01 04:32:33;;;;;;;;;;;9.50;93.80;;;;;;5072683;28;19962;-88
2023/01/01 04:34:58;;;;;;;;;;;9.50;93.90;;;;;;5072846;28;19943;-87
2023/01/01 04:37:24;;;;;;;;;;;9.50;93.80;;;;;;5072953;28;19945;-88
2023/01/01 04:39:50;;;;;;;;;;;9.50;93.80;;;;;;5072714;28;19950;-88
2023/01/01 04:42:16;;;;;;;;;;;9.40;93.70;;;;;;5072582;28;20344;-87
2023/01/01 04:44:41;;;;;;;;;;;9.40;93.80;;;;;;5072905;28;19936;-87
2023/01/01 04:47:07;;;;;;;;;;;9.40;93.80;;;;;;5072720;28;19958;-88
2023/01/01 04:49:33;;;;;;;;;;;9.40;93.90;;;;;;5072604;28;19949;-87
2023/01/01 04:51:58;;;;;;;;;;;9.30;94.00;;;;;;5072514;28;19965;-87
2023/01/01 04:54:24;;;;;;;;;;;9.30;94.10;;;;;;5072570;28;19950;-87
2023/01/01 04:56:49;;;;;;;;;;;9.30;94.30;;;;;;5072535;28;20294;-88
2023/01/01 04:59:15;;;;;;;;;;;9.40;94.30;;;;;;5072383;28;19943;-87
2023/01/01 05:01:40;;;;;;;;;;;9.40;94.40;;;;;;5054681;28;19947;-87
2023/01/01 05:04:06;;;;;;;;;;;9.40;94.40;;;;;;5072905;28;20406;-87
2023/01/01 05:06:31;;;;;;;;;;;9.40;94.40;;;;;;5072599;28;20007;-87
2023/01/01 05:08:58;;;;;;;;;;;9.40;94.40;;;;;;5072515;28;19980;-87
2023/01/01 05:11:25;;;;;;;;;;;9.40;94.50;;;;;;5072524;28;19959;-88
2023/01/01 05:13:52;;;;;;;;;;;9.40;94.50;;;;;;5072701;28;20028;-87
2023/01/01 05:16:19;;;;;;;;;;;9.40;94.50;;;;;;5072325;28;19975;-88
2023/01/01 05:18:44;;;;;;;;;;;9.40;94.60;;;;;;5072126;28;19990;-87
2023/01/01 05:21:11;;;;;;;;;;;9.50;94.60;;;;;;5072410;28;19983;-87
2023/01/01 05:23:36;;;;;;;;;;;9.50;94.50;;;;;;5076413;28;19946;-87
2023/01/01 05:26:13;;;;;;;;;;;9.50;94.50;;;;;;5076078;28;19943;-88
2023/01/01 05:28:39;;;;;;;;;;;9.50;94.40;;;;;;5075865;28;20048;-87
2023/01/01 05:31:06;;;;;;;;;;;9.50;94.30;;;;;;5076001;28;20100;-87
2023/01/01 05:33:31;;;;;;;;;;;9.60;94.30;;;;;;5076177;28;19972;-87
2023/01/01 05:35:57;;;;;;;;;;;9.60;94.30;;;;;;5075997;28;19947;-87
2023/01/01 05:38:22;;;;;;;;;;;9.60;94.20;;;;;;5075702;28;20396;-87
2023/01/01 05:40:48;;;;;;;;;;;9.60;94.20;;;;;;5075821;28;19958;-87
2023/01/01 05:43:15;;;;;;;;;;;9.60;94.20;;;;;;5075902;28;19947;-87
2023/01/01 05:45:40;;;;;;;;;;;9.60;94.20;;;;;;5054460;28;19951;-88
2023/01/01 05:48:06;;;;;;;;;;;9.60;94.30;;;;;;5057852;28;20433;-87
2023/01/01 05:50:31;;;;;;;;;;;9.70;94.30;;;;;;5075755;28;19952;-88
2023/01/01 05:52:57;;;;;;;;;;;9.70;94.30;;;;;;5075736;28;19992;-87
2023/01/01 05:55:22;;;;;;;;;;;9.70;94.30;;;;;;5075517;28;20427;-88
2023/01/01 05:57:48;;;;;;;;;;;9.80;94.30;;;;;;5075604;28;19957;-87
2023/01/01 06:00:13;;;;;;;;;;;9.80;94.10;;;;;;5075201;28;19952;-87
2023/01/01 06:02:39;;;;;;;;;;;9.80;93.80;;;;;;5075696;28;19941;-87
2023/01/01 06:05:04;;;;;;;;;;;9.90;93.70;;;;;;5075434;28;20305;-87
2023/01/01 06:07:30;;;;;;;;;;;9.70;93.70;;;;;;5075571;28;20302;-88
2023/01/01 06:09:55;;;;;;;;;;;9.70;93.80;;;;;;5075134;28;19947;-87
2023/01/01 06:12:21;;;;;;;;;;;9.70;93.80;;;;;;5075431;28;19960;-87
2023/01/01 06:14:46;;;;;;;;;;;9.70;93.80;;;;;;5075301;28;19972;-88
2023/01/01 06:17:12;;;;;;;;;;;9.70;93.80;;;;;;5074665;28;19948;-87
2023/01/01 06:19:37;;;;;;;;;;;9.70;93.80;;;;;;5057122;28;20044;-87
2023/01/01 06:22:04;;;;;;;;;;;9.70;94.00;;;;;;5053586;28;19998;-87
2023/01/01 06:24:30;;;;;;;;;;;9.80;93.90;;;;;;5072905;28;19944;-87
2023/01/01 06:26:55;;;;;;;;;;;9.70;93.80;;;;;;5075048;28;20328;-87
2023/01/01 06:29:21;;;;;;;;;;;9.70;93.80;;;;;;5074883;28;20046;-87
2023/01/01 06:31:46;;;;;;;;;;;9.60;93.80;;;;;;5074908;28;19951;-87
2023/01/01 06:34:12;;;;;;;;;;;9.50;93.90;;;;;;5074242;28;19947;-87
2023/01/01 06:36:37;;;;;;;;;;;9.50;94.20;;;;;;5074749;28;20008;-87
2023/01/01 06:39:03;;;;;;;;;;;9.50;94.30;;;;;;5074738;28;20316;-87
2023/01/01 06:41:29;;;;;;;;;;;9.50;94.20;;;;;;5074733;28;19981;-87
2023/01/01 06:43:55;;;;;;;;;;;9.60;94.20;;;;;;5074892;28;19938;-87
2023/01/01 06:46:22;;;;;;;;;;;9.60;94.00;;;;;;5074538;28;19954;-87
2023/01/01 06:48:49;;;;;;;;;;;9.60;94.10;;;;;;5074385;28;19961;-87
2023/01/01 06:51:18;;;;;;;;;;;9.50;94.20;;;;;;5074656;28;19979;-88
2023/01/01 06:53:44;;;;;;;;;;;9.60;94.40;;;;;;5074574;28;19968;-87
2023/01/01 06:56:10;;;;;;;;;;;9.70;94.30;;;;;;5074336;28;19948;-87
2023/01/01 06:58:35;;;;;;;;;;;9.80;94.20;;;;;;5074437;28;19946;-88
2023/01/01 07:01:02;;;;;;;;;;;9.80;94.20;;;;;;5074344;28;20430;-87
2023/01/01 07:03:27;;;;;;;;;;;9.70;94.20;;;;;;5074301;28;19945;-87
2023/01/01 07:05:53;;;;;;;;;;;9.70;94.30;;;;;;5074133;28;19951;-87
2023/01/01 07:08:18;;;;;;;;;;;9.70;94.40;;;;;;5074141;28;19963;-87
2023/01/01 07:10:44;;;;;;;;;;;9.70;94.40;;;;;;5074192;28;20016;-87
2023/01/01 07:13:09;;;;;;;;;;;9.70;94.30;;;;;;5074231;28;20475;-87
2023/01/01 07:15:35;;;;;;;;;;;9.70;94.30;;;;;;5073911;28;20025;-87
2023/01/01 07:18:00;;;;;;;;;;;9.70;94.30;;;;;;5074222;28;20350;-87
2023/01/01 07:20:26;;;;;;;;;;;9.70;94.50;;;;;;5073484;28;19992;-87
2023/01/01 07:22:51;;;;;;;;;;;9.80;94.40;;;;;;5052818;28;20035;-87
2023/01/01 07:25:17;;;;;;;;;;;9.80;94.40;;;;;;5056997;28;20029;-87
2023/01/01 07:27:42;;;;;;;;;;;9.90;94.40;;;;;;5073996;28;19938;-87
2023/01/01 07:30:08;;;;;;;;;;;9.80;94.40;;;;;;5073356;28;19972;-87
2023/01/01 07:32:34;;;;;;;;;;;9.90;94.40;;;;;;5073444;28;20434;-87
2023/01/01 07:34:59;;;;;;;;;;;9.90;94.20;;;;;;5052043;28;19957;-87
2023/01/01 07:37:25;;;;;;;;;;;9.90;94.00;;;;;;5065691;28;20285;-87
2023/01/01 07:39:50;;;;;;;;;;;9.90;94.10;;;;;;5073325;28;19948;-87
2023/01/01 07:42:16;;;;;;;;;;;10.00;94.10;;;;;;5073415;28;19947;-87
2023/01/01 07:44:42;;;;;;;;;;;10.00;94.00;;;;;;5072950;28;20019;-87
2023/01/01 07:47:25;;;;;;;;;;;10.00;93.80;;;;;;5073123;28;19947;-87
2023/01/01 07:49:51;;;;;;;;;;;10.10;93.70;;;;;;5073210;28;19946;-88
2023/01/01 07:52:17;;;;;;;;;;;10.10;93.60;;;;;;5073214;28;20364;-87
2023/01/01 07:54:42;;;;;;;;;;;10.00;93.50;;;;;;5073414;28;19937;-87
2023/01/01 07:57:08;;;;;;;;;;;10.00;93.60;;;;;;5072862;28;20003;-87
2023/01/01 07:59:34;;;;;;;;;;;10.00;93.60;;;;;;5073487;28;19950;-87
2023/01/01 08:01:59;;;;;;;;;;;10.00;93.50;;;;;;5073263;28;20399;-87
2023/01/01 08:04:28;;;;;;;;;;;10.00;93.50;;;;;;5073208;28;19952;-87
2023/01/01 08:06:54;;;;;;;;;;;10.00;93.50;;;;;;5072878;28;19946;-87
2023/01/01 08:09:19;;;;;;;;;;;10.10;93.60;;;;;;5072938;28;20322;-87
2023/01/01 08:11:45;;;;;;;;;;;10.20;93.40;;;;;;5072751;28;19951;-87
2023/01/01 08:14:11;;;;;;;;;;;10.20;93.30;;;;;;5073206;28;20341;-88
2023/01/01 08:16:36;;;;;;;;;;;10.20;93.20;;;;;;5072595;28;19977;-87
2023/01/01 08:19:02;;;;;;;;;;;10.20;93.20;;;;;;5072711;28;19971;-88
2023/01/01 08:21:28;;;;;;;;;;;10.20;93.10;;;;;;5072747;28;20033;-87
2023/01/01 08:23:53;;;;;;;;;;;10.20;93.20;;;;;;5072898;28;19949;-87
2023/01/01 08:26:26;;;;;;;;;;;10.20;93.20;;;;;;5072970;28;19976;-87
2023/01/01 08:28:51;;;;;;;;;;;10.20;93.10;;;;;;5072778;28;19945;-88
2023/01/01 08:31:17;;;;;;;;;;;10.30;93.20;;;;;;5072803;28;19949;-87
2023/01/01 08:33:42;;;;;;;;;;;10.30;93.00;;;;;;5072820;28;19959;-88
2023/01/01 08:36:09;;;;;;;;;;;10.30;92.90;;;;;;5054884;28;20056;-87
2023/01/01 08:38:35;;;;;;;;;;;10.40;92.80;;;;;;5054611;28;20030;-88
2023/01/01 08:41:00;;;;;;;;;;;10.40;92.70;;;;;;5072759;28;19987;-87
2023/01/01 08:43:26;;;;;;;;;;;10.40;92.50;;;;;;5072329;28;20004;-87
2023/01/01 08:45:51;;;;;;;;;;;10.40;92.40;;;;;;5072555;28;20043;-87
2023/01/01 08:48:17;;;;;;;;;;;10.40;92.50;;;;;;5072470;28;19944;-87
2023/01/01 08:50:42;;;;;;;;;;;10.50;92.40;;;;;;5072805;28;20035;-87
2023/01/01 08:53:08;;;;;;;;;;;10.50;91.90;;;;;;5072236;28;20483;-87
2023/01/01 08:55:33;;;;;;;;;;;10.60;91.90;;;;;;5072208;28;19967;-87
2023/01/01 08:57:59;;;;;;;;;;;10.60;91.80;;;;;;5076173;28;19937;-87
2023/01/01 09:00:24;;;;;;;;;;;10.70;91.40;;;;;;5076883;28;20306;-87
2023/01/01 09:02:50;;;;;;;;;;;10.70;91.40;;;;;;5076863;28;19995;-88
2023/01/01 09:05:15;;;;;;;;;;;10.80;91.40;;;;;;5076431;28;19981;-88
2023/01/01 09:07:41;;;;;;;;;;;10.80;91.00;;;;;;5058811;28;19990;-88
2023/01/01 09:10:07;;;;;;;;;;;10.90;90.80;;;;;;5076079;28;19948;-87
2023/01/01 09:12:32;;;;;;;;;;;10.90;90.50;;;;;;5076648;28;20390;-87
2023/01/01 09:14:58;;;;;;;;;;;10.90;90.30;;;;;;5076218;28;19983;-88
2023/01/01 09:17:23;;;;;;;;;;;10.90;90.00;;;;;;5076182;28;20040;-88
2023/01/01 09:19:49;;;;;;;;;;;10.90;90.10;;;;;;5075693;28;20041;-87
2023/01/01 09:22:14;;;;;;;;;;;11.00;90.10;;;;;;5076342;28;19944;-88
2023/01/01 09:24:40;;;;;;;;;;;11.10;90.10;;;;;;5076166;28;19954;-88
2023/01/01 09:27:05;;;;;;;;;;;11.20;89.90;;;;;;5076090;28;19951;-88
2023/01/01 09:29:31;;;;;;;;;;;11.30;89.90;;;;;;5076061;28;20425;-88
2023/01/01 09:31:56;;;;;;;;;;;11.40;89.70;;;;;;5076211;28;19963;-88
2023/01/01 09:34:22;;;;;;;;;;;11.50;89.20;;;;;;5075957;28;19947;-88
2023/01/01 09:36:47;;;;;;;;;;;11.70;88.00;;;;;;5076200;28;19972;-88
2023/01/01 09:39:14;;;;;;;;;;;11.70;86.70;;;;;;5076165;28;20404;-87
2023/01/01 09:41:58;;;;;;;;;;;11.90;86.00;;;;;;5054836;28;20460;-88
2023/01/01 09:44:42;;;;;;;;;;;11.90;85.70;;;;;;5073778;28;19949;-88
2023/01/01 09:47:18;;;;;;;;;;;11.90;85.90;;;;;;5075560;28;20360;-88
2023/01/01 09:49:44;;;;;;;;;;;11.90;85.70;;;;;;5075923;28;19946;-88
2023/01/01 09:52:12;;;;;;;;;;;12.00;85.70;;;;;;5075404;28;20449;-88
2023/01/01 09:54:43;;;;;;;;;;;12.00;85.70;;;;;;5074997;28;20048;-88
2023/01/01 09:57:11;;;;;;;;;;;11.90;85.10;;;;;;5054280;28;19952;-88
2023/01/01 09:59:37;;;;;;;;;;;11.90;85.10;;;;;;5062881;28;19950;-88
2023/01/01 10:02:21;;;;;;;;;;;12.00;84.40;;;;;;5054184;28;19954;-88
2023/01/01 10:05:06;;;;;;;;;;;12.10;84.30;;;;;;5066749;28;19949;-88
2023/01/01 10:07:45;;;;;;;;;;;12.30;84.10;;;;;;5053647;28;20466;-87
2023/01/01 10:10:19;;;;;;;;;;;12.50;83.80;;;;;;5069311;28;19950;-88
2023/01/01 10:12:55;;;;;;;;;;;12.70;82.90;;;;;;5075195;28;19969;-88
2023/01/01 10:15:22;;;;;;;;;;;12.90;82.70;;;;;;5074985;28;19976;-88
2023/01/01 10:17:50;;;;;;;;;;;12.90;83.10;;;;;;5075244;28;19947;-88
2023/01/01 10:20:19;;;;;;;;;;;12.90;83.80;;;;;;5075350;28;20018;-88
2023/01/01 10:22:45;;;;;;;;;;;12.90;83.50;;;;;;5074926;28;19945;-88
2023/01/01 10:25:17;;;;;;;;;;;12.90;83.70;;;;;;5075013;28;20419;-88
2023/01/01 10:27:59;;;;;;;;;;;12.90;84.00;;;;;;5075083;28;20545;-87
2023/01/01 10:30:25;;;;;;;;;;;12.90;83.80;;;;;;5075202;28;19965;-88
2023/01/01 10:32:52;;;;;;;;;;;12.90;83.40;;;;;;5074455;28;19988;-88
2023/01/01 10:35:19;;;;;;;;;;;12.90;83.50;;;;;;5074867;28;19957;-88
2023/01/01 10:37:45;;;;;;;;;;;13.00;83.00;;;;;;5074801;28;19952;-88
2023/01/01 10:40:13;;;;;;;;;;;13.10;82.90;;;;;;5074824;28;19991;-88
2023/01/01 10:42:39;;;;;;;;;;;13.30;82.60;;;;;;5074732;28;19971;-88
2023/01/01 10:45:04;;;;;;;;;;;13.40;81.50;;;;;;5074374;28;19948;-88
2023/01/01 10:47:30;;;;;;;;;;;13.50;81.30;;;;;;5074798;28;19951;-88
2023/01/01 10:49:56;;;;;;;;;;;13.60;80.40;;;;;;5074693;28;20290;-88
2023/01/01 10:52:47;;;;;;;;;;;13.80;80.30;;;;;;5074622;28;19967;-88
2023/01/01 10:55:20;;;;;;;;;;;13.90;79.70;;;;;;5069517;28;19940;-88
2023/01/01 10:57:46;;;;;;;;;;;13.90;79.20;;;;;;5053192;28;20007;-88
2023/01/01 11:00:11;;;;;;;;;;;13.90;78.50;;;;;;5054685;28;19939;-88
2023/01/01 11:02:37;;;;;;;;;;;13.90;78.10;;;;;;5069351;28;19945;-88
2023/01/01 11:05:13;;;;;;;;;;;13.90;78.60;;;;;;5074220;28;20062;-88
2023/01/01 11:07:40;;;;;;;;;;;13.80;79.00;;;;;;5056376;28;20095;-88
2023/01/01 11:10:14;;;;;;;;;;;13.80;79.30;;;;;;5074409;28;20437;-88
2023/01/01 11:12:40;;;;;;;;;;;13.80;80.10;;;;;;5073796;28;19979;-88
2023/01/01 11:15:05;;;;;;;;;;;13.70;80.00;;;;;;5068174;22;19979;-88
2023/01/01 11:17:33;;;;;;;;;;;13.70;79.90;;;;;;5034268;28;19983;-88
2023/01/01 11:19:58;;;;;;;;;;;13.80;80.10;;;;;;5034047;28;20309;-88
2023/01/01 11:22:36;;;;;;;;;;;13.90;80.60;;;;;;5032328;28;19950;-88
2023/01/01 11:25:03;;;;;;;;;;;14.00;80.40;;;;;;5042423;28;19993;-88
2023/01/01 11:27:29;;;;;;;;;;;14.10;80.70;;;;;;5034348;28;20043;-88
2023/01/01 11:30:17;;;;;;;;;;;14.10;80.70;;;;;;5034074;28;20000;-88
2023/01/01 11:32:43;;;;;;;;;;;14.00;80.30;;;;;;5048945;28;19962;-88
2023/01/01 11:35:16;;;;;;;;;;;14.20;80.90;;;;;;5040536;28;20436;-88
2023/01/01 11:37:43;;;;;;;;;;;14.50;80.40;;;;;;5033867;28;19976;-88
2023/01/01 11:40:15;;;;;;;;;;;14.50;79.30;;;;;;5033918;28;20144;-88
2023/01/01 11:42:45;;;;;;;;;;;14.80;78.70;;;;;;5016079;28;19945;-88
2023/01/01 11:45:10;;;;;;;;;;;14.90;77.40;;;;;;5046164;28;19994;-88
2023/01/01 11:47:37;;;;;;;;;;;14.90;75.90;;;;;;5053381;28;19945;-88
2023/01/01 11:50:15;;;;;;;;;;;15.40;75.40;;;;;;5034097;28;19951;-88
2023/01/01 11:52:42;;;;;;;;;;;15.80;73.80;;;;;;5033556;28;20039;-88
2023/01/01 11:55:13;;;;;;;;;;;16.10;71.80;;;;;;5033084;28;19947;-88
2023/01/01 11:57:43;;;;;;;;;;;16.40;70.70;;;;;;5033440;28;19982;-88
2023/01/01 12:00:12;;;;;;;;;;;17.00;68.80;;;;;;5033602;28;20448;-88
2023/01/01 12:02:42;;;;;;;;;;;17.50;67.70;;;;;;5033320;28;19950;-88
2023/01/01 12:05:21;;;;;;;;;;;17.60;67.40;;;;;;5033276;28;19995;-88
2023/01/01 12:07:47;;;;;;;;;;;17.00;68.10;;;;;;5033242;28;19948;-88
2023/01/01 12:10:15;;;;;;;;;;;16.60;68.40;;;;;;5033148;28;19941;-88
2023/01/01 12:12:50;;;;;;;;;;;16.10;71.00;;;;;;5021230;28;20327;-88
2023/01/01 12:15:27;;;;;;;;;;;15.70;71.90;;;;;;5020532;28;19970;-88
2023/01/01 12:18:10;;;;;;;;;;;15.20;74.80;;;;;;5026824;28;19942;-88
2023/01/01 12:20:39;;;;;;;;;;;14.90;74.60;;;;;;5023648;28;20041;-88
2023/01/01 12:23:07;;;;;;;;;;;14.40;76.40;;;;;;5024675;28;20098;-88
2023/01/01 12:25:40;;;;;;;;;;;14.20;77.00;;;;;;5023998;28;19947;-87
2023/01/01 12:28:16;;;;;;;;;;;13.90;77.60;;;;;;5033026;28;19939;-88
2023/01/01 12:30:48;;;;;;;;;;;13.70;79.10;;;;;;5032999;28;19939;-88
2023/01/01 12:33:32;;;;;;;;;;;13.50;79.90;;;;;;5032686;28;19982;-88
2023/01/01 12:36:17;;;;;;;;;;;13.50;80.30;;;;;;5031124;28;19951;-88
2023/01/01 12:38:54;;;;;;;;;;;13.40;81.40;;;;;;5032903;28;19950;-88
2023/01/01 12:41:32;;;;;;;;;;;13.30;81.40;;;;;;5032841;28;20020;-88
2023/01/01 12:44:13;;;;;;;;;;;13.30;81.40;;;;;;5033066;28;19947;-88
2023/01/01 12:46:48;;;;;;;;;;;13.40;81.60;;;;;;5032617;28;20302;-88
2023/01/01 12:49:14;;;;;;;;;;;13.50;81.70;;;;;;5032950;28;19939;-88
2023/01/01 12:51:44;;;;;;;;;;;13.60;81.00;;;;;;5032740;28;20422;-88
2023/01/01 12:54:16;;;;;;;;;;;13.60;81.20;;;;;;5032624;28;19956;-88
2023/01/01 12:56:48;;;;;;;;;;;13.60;80.50;;;;;;5032767;28;19946;-88
2023/01/01 12:59:19;;;;;;;;;;;13.60;80.90;;;;;;5032873;28;19943;-88
2023/01/01 13:01:46;;;;;;;;;;;13.60;81.00;;;;;;5031479;28;19951;-88
2023/01/01 13:04:13;;;;;;;;;;;13.50;81.00;;;;;;5032629;28;20032;-88
2023/01/01 13:06:41;;;;;;;;;;;13.40;81.90;;;;;;5032219;28;19945;-88
2023/01/01 13:09:17;;;;;;;;;;;13.30;82.10;;;;;;5032559;28;19948;-88
2023/01/01 13:11:45;;;;;;;;;;;13.30;82.20;;;;;;5032519;28;20051;-88
2023/01/01 13:14:10;;;;;;;;;;;13.20;82.50;;;;;;5032542;28;20028;-88
2023/01/01 13:16:40;;;;;;;;;;;13.30;82.50;;;;;;5032203;28;20517;-88
2023/01/01 13:19:20;;;;;;;;;;;13.30;82.10;;;;;;5032442;28;19953;-88
2023/01/01 13:21:46;;;;;;;;;;;13.30;81.90;;;;;;5031134;28;19947;-88
2023/01/01 13:24:21;;;;;;;;;;;13.30;82.40;;;;;;5032327;28;20008;-88
2023/01/01 13:26:48;;;;;;;;;;;13.30;82.10;;;;;;5032463;28;19948;-88
2023/01/01 13:29:14;;;;;;;;;;;13.20;80.90;;;;;;5032445;28;19997;-88
2023/01/01 13:31:39;;;;;;;;;;;13.10;81.70;;;;;;5032129;28;19984;-88
2023/01/01 13:34:23;;;;;;;;;;;13.10;82.30;;;;;;5032330;28;19968;-88
2023/01/01 13:36:49;;;;;;;;;;;13.10;83.30;;;;;;5032326;28;19990;-88
2023/01/01 13:39:33;;;;;;;;;;;13.20;83.70;;;;;;5032067;28;20350;-88
2023/01/01 13:41:59;;;;;;;;;;;13.00;83.50;;;;;;5032143;28;20089;-88
2023/01/01 13:44:24;;;;;;;;;;;13.00;83.80;;;;;;5035361;28;20348;-87
2023/01/01 13:47:10;;;;;;;;;;;12.90;84.30;;;;;;5034570;28;20320;-88
2023/01/01 13:49:36;;;;;;;;;;;12.90;84.60;;;;;;5035127;28;20405;-88
2023/01/01 13:52:12;;;;;;;;;;;12.90;85.00;;;;;;5035506;28;19944;-87
2023/01/01 13:54:52;;;;;;;;;;;12.90;85.00;;;;;;5035200;28;19941;-88
2023/01/01 13:57:30;;;;;;;;;;;12.90;85.30;;;;;;5036015;28;20048;-88
2023/01/01 14:00:15;;;;;;;;;;;12.90;86.00;;;;;;5035835;28;19945;-88
2023/01/01 14:02:49;;;;;;;;;;;12.80;86.20;;;;;;5035636;28;19954;-88
2023/01/01 14:05:17;;;;;;;;;;;12.70;86.30;;;;;;5035273;28;20047;-88
2023/01/01 14:07:51;;;;;;;;;;;12.70;86.80;;;;;;5035493;28;20431;-88
2023/01/01 14:10:19;;;;;;;;;;;12.70;87.10;;;;;;5035425;28;19977;-88
2023/01/01 14:12:45;;;;;;;;;;;12.60;86.90;;;;;;5035193;28;19967;-88
2023/01/01 14:15:15;;;;;;;;;;;12.50;87.00;;;;;;5035351;28;19978;-88
2023/01/01 14:17:41;;;;;;;;;;;12.50;87.00;;;;;;5034070;28;20030;-88
2023/01/01 14:20:07;;;;;;;;;;;12.50;87.30;;;;;;5035236;28;20299;-87
2023/01/01 14:22:33;;;;;;;;;;;12.50;87.40;;;;;;5034689;28;19945;-88
2023/01/01 14:24:58;;;;;;;;;;;12.50;87.60;;;;;;5035227;28;19947;-88
2023/01/01 14:27:26;;;;;;;;;;;12.40;87.50;;;;;;5035182;28;20001;-88
2023/01/01 14:29:52;;;;;;;;;;;12.40;88.00;;;;;;5035160;28;19951;-88
2023/01/01 14:32:22;;;;;;;;;;;12.30;88.10;;;;;;5034859;28;19965;-88
2023/01/01 14:34:57;;;;;;;;;;;12.30;88.20;;;;;;5034979;28;20405;-88
2023/01/01 14:37:23;;;;;;;;;;;12.30;88.30;;;;;;5035017;28;19960;-88